Time;durP1;ratioP1;P1;durP2;ratioP2;P2;SDS_P1;SDS_P2;PMS_P1;PMS_P2;Temp;Humidity;BMP_temperature;BMP_pressure;BME280_temperature;BME280_humidity;BME280_pressure;Samples;Min_cycle;Max_cycle;Signal;HPM_P1;HPM_P2
2021/07/14 03:37:04;;;;;;;;;;;;;;;;;;;;;
2021/07/14 08:11:57;;;;;;;;;9.50;9.25;;;;;;;;5092364;27;47428;-92
2021/07/14 08:14:37;;;;;;;;;;;;;;;;;;;;;
2021/07/14 08:20:16;;;;;;;;;12.00;11.00;;;;;;;;5067370;27;46924;-92
2021/07/14 08:22:44;;;;;;;;;12.75;11.00;;;;;;;;5074797;27;46809;-92
2021/07/14 08:25:10;;;;;;;;;13.00;10.50;;;;;;;;5073900;28;46753;-91
2021/07/14 08:27:36;;;;;;;;;15.00;11.00;;;;;;;;5075122;27;47170;-92
2021/07/14 08:30:04;;;;;;;;;7.75;4.75;;;;;;;;5073201;28;48556;-91
2021/07/14 08:32:32;;;;;;;;;12.25;11.50;;;;;;;;5074735;28;47079;-90
2021/07/14 08:35:16;;;;;;;;;10.50;10.25;;;;;;;;5071778;28;46888;-90
2021/07/14 08:37:41;;;;;;;;;9.00;7.75;;;;;;;;5074709;27;47123;-91
2021/07/14 08:40:24;;;;;;;;;;;;;;;;;;;;;
2021/07/14 08:42:53;;;;;;;;;10.00;10.00;;;;;;;;5073287;28;75320;-90
2021/07/14 08:45:20;;;;;;;;;10.25;9.50;;;;;;;;5074437;27;46834;-90
2021/07/14 08:47:59;;;;;;;;;;;;;;;;;;;;;
2021/07/14 08:50:27;;;;;;;;;11.75;10.00;;;;;;;;5073561;28;75673;-90
2021/07/14 08:52:52;;;;;;;;;8.50;7.75;;;;;;;;5074516;27;47145;-91
2021/07/14 08:55:21;;;;;;;;;9.00;8.00;;;;;;;;5073066;28;47025;-89
2021/07/14 08:57:47;;;;;;;;;8.00;7.00;;;;;;;;5073142;28;47221;-90
2021/07/14 09:00:15;;;;;;;;;7.25;7.25;;;;;;;;5072467;28;49522;-90
2021/07/14 09:02:41;;;;;;;;;7.75;6.00;;;;;;;;5073134;28;47055;-90
2021/07/14 09:05:08;;;;;;;;;8.00;7.25;;;;;;;;5074241;27;46800;-90
2021/07/14 09:07:34;;;;;;;;;14.75;11.00;;;;;;;;5074749;28;46847;-91
2021/07/14 09:10:01;;;;;;;;;8.25;7.75;;;;;;;;5079529;27;46884;-90
2021/07/14 09:12:36;;;;;;;;;8.75;8.50;;;;;;;;5076017;27;47183;-90
2021/07/14 09:15:06;;;;;;;;;9.00;8.25;;;;;;;;5094015;27;47056;-91
2021/07/14 09:17:31;;;;;;;;;9.00;8.00;;;;;;;;5076426;27;47127;-92
2021/07/14 09:20:01;;;;;;;;;9.50;8.00;;;;;;;;5075876;27;48587;-90
2021/07/14 09:22:32;;;;;;;;;9.00;9.00;;;;;;;;5084240;27;47220;-89
2021/07/14 09:24:57;;;;;;;;;10.50;10.00;;;;;;;;5080456;28;46798;-90
2021/07/14 09:27:28;;;;;;;;;9.00;8.50;;;;;;;;5062330;28;46833;-89
2021/07/14 09:30:05;;;;;;;;;7.25;7.00;;;;;;;;5080251;28;47734;-90
2021/07/14 09:32:43;;;;;;;;;8.00;7.25;;;;;;;;5080335;28;47599;-90
2021/07/14 09:35:09;;;;;;;;;8.25;8.00;;;;;;;;5068330;28;46909;-89
2021/07/14 09:37:37;;;;;;;;;9.00;8.75;;;;;;;;5080488;28;46829;-90
2021/07/14 09:40:04;;;;;;;;;8.50;8.25;;;;;;;;5078913;28;47175;-90
2021/07/14 09:42:29;;;;;;;;;6.50;6.50;;;;;;;;5080133;27;46848;-90
2021/07/14 09:44:55;;;;;;;;;7.75;7.75;;;;;;;;5080207;27;46978;-89
2021/07/14 09:47:22;;;;;;;;;9.00;9.00;;;;;;;;5078691;28;47162;-89
2021/07/14 09:49:48;;;;;;;;;9.50;8.75;;;;;;;;5080013;27;46932;-89
2021/07/14 09:52:15;;;;;;;;;12.50;11.00;;;;;;;;5079860;27;46813;-88
2021/07/14 09:54:41;;;;;;;;;7.25;7.00;;;;;;;;5080319;27;46997;-89
2021/07/14 09:57:07;;;;;;;;;8.75;7.50;;;;;;;;5080150;28;46858;-89
2021/07/14 09:59:33;;;;;;;;;8.50;8.25;;;;;;;;5079725;27;48466;-89
2021/07/14 10:01:58;;;;;;;;;10.00;10.00;;;;;;;;5061442;28;46926;-89
2021/07/14 10:04:33;;;;;;;;;10.50;9.00;;;;;;;;5079908;28;46867;-88
2021/07/14 10:07:07;;;;;;;;;8.50;8.00;;;;;;;;5061711;28;47318;-88
2021/07/14 10:09:33;;;;;;;;;8.00;8.00;;;;;;;;5079446;28;46970;-88
2021/07/14 10:12:17;;;;;;;;;9.00;8.00;;;;;;;;5079622;27;46951;-87
2021/07/14 10:14:42;;;;;;;;;11.00;9.00;;;;;;;;5079375;28;46948;-88
2021/07/14 10:17:08;;;;;;;;;11.25;10.00;;;;;;;;5079895;27;46973;-88
2021/07/14 10:19:33;;;;;;;;;7.25;6.50;;;;;;;;5079500;27;48267;-87
2021/07/14 10:21:59;;;;;;;;;13.75;10.00;;;;;;;;5079591;27;47026;-88
2021/07/14 10:24:25;;;;;;;;;8.00;8.00;;;;;;;;5079492;28;46891;-87
2021/07/14 10:26:53;;;;;;;;;6.50;5.75;;;;;;;;5079919;28;47071;-88
2021/07/14 10:29:19;;;;;;;;;11.25;10.00;;;;;;;;5078911;28;46993;-87
2021/07/14 10:31:47;;;;;;;;;8.25;7.50;;;;;;;;5079552;28;46783;-87
2021/07/14 10:34:12;;;;;;;;;8.00;8.00;;;;;;;;5078116;28;47045;-87
2021/07/14 10:36:38;;;;;;;;;8.50;8.25;;;;;;;;5079659;28;46991;-88
2021/07/14 10:39:06;;;;;;;;;10.25;10.00;;;;;;;;5079431;28;47031;-87
2021/07/14 10:41:32;;;;;;;;;6.50;6.50;;;;;;;;5060966;28;47026;-87
2021/07/14 10:43:58;;;;;;;;;7.50;7.25;;;;;;;;5078917;28;46892;-88
2021/07/14 10:46:25;;;;;;;;;9.50;8.50;;;;;;;;5061467;28;47149;-87
2021/07/14 10:48:54;;;;;;;;;10.25;9.75;;;;;;;;5079099;28;47150;-87
2021/07/14 10:51:20;;;;;;;;;7.75;7.75;;;;;;;;5060697;28;47243;-86
2021/07/14 10:53:48;;;;;;;;;11.00;9.25;;;;;;;;5078812;28;46922;-87
2021/07/14 10:56:14;;;;;;;;;9.25;8.50;;;;;;;;5079332;28;46791;-87
2021/07/14 10:58:41;;;;;;;;;8.00;8.00;;;;;;;;5078382;28;47060;-86
2021/07/14 11:01:06;;;;;;;;;13.50;11.50;;;;;;;;5078924;28;47065;-87
2021/07/14 11:03:33;;;;;;;;;9.50;8.25;;;;;;;;5078912;28;47163;-87
2021/07/14 11:05:58;;;;;;;;;12.00;12.00;;;;;;;;5079075;28;46996;-86
2021/07/14 11:08:36;;;;;;;;;9.50;9.00;;;;;;;;5078635;28;46871;-86
2021/07/14 11:11:02;;;;;;;;;12.00;10.75;;;;;;;;5078342;28;47032;-86
2021/07/14 11:13:29;;;;;;;;;11.25;11.25;;;;;;;;5078605;28;46886;-86
2021/07/14 11:15:55;;;;;;;;;12.25;10.50;;;;;;;;5078834;28;47049;-87
2021/07/14 11:18:30;;;;;;;;;10.75;9.25;;;;;;;;5078487;28;47858;-86
2021/07/14 11:20:56;;;;;;;;;11.00;9.25;;;;;;;;5078541;28;47097;-86
2021/07/14 11:23:23;;;;;;;;;9.75;8.50;;;;;;;;5078618;28;47005;-85
2021/07/14 11:25:51;;;;;;;;;6.25;6.25;;;;;;;;5060359;28;47134;-86
2021/07/14 11:28:17;;;;;;;;;13.00;13.00;;;;;;;;5078228;28;48186;-85
2021/07/14 11:30:42;;;;;;;;;12.00;10.50;;;;;;;;5059790;28;46958;-86
2021/07/14 11:33:10;;;;;;;;;6.25;6.25;;;;;;;;5078322;27;46744;-86
2021/07/14 11:35:44;;;;;;;;;10.50;10.50;;;;;;;;5078550;28;46955;-85
2021/07/14 11:38:20;;;;;;;;;13.50;13.50;;;;;;;;5078217;28;48073;-85
2021/07/14 11:40:52;;;;;;;;;5.50;4.50;;;;;;;;5078228;28;47087;-85
2021/07/14 11:43:21;;;;;;;;;11.00;10.00;;;;;;;;5078461;28;46903;-85
2021/07/14 11:45:48;;;;;;;;;9.75;9.75;;;;;;;;5077841;28;47196;-85
2021/07/14 11:48:15;;;;;;;;;9.25;8.75;;;;;;;;5078646;28;46829;-85
2021/07/14 11:50:40;;;;;;;;;11.25;10.00;;;;;;;;5078041;28;46947;-85
2021/07/14 11:53:30;;;;;;;;;11.75;10.50;;;;;;;;5078228;28;46847;-85
2021/07/14 11:55:59;;;;;;;;;11.75;8.75;;;;;;;;5078193;28;46984;-86
2021/07/14 11:58:44;;;;;;;;;11.50;10.75;;;;;;;;5077730;28;47033;-85
2021/07/14 12:01:10;;;;;;;;;12.00;11.00;;;;;;;;5066137;28;46938;-85
2021/07/14 12:03:35;;;;;;;;;9.25;9.25;;;;;;;;5078033;28;46726;-85
2021/07/14 12:06:01;;;;;;;;;9.50;9.00;;;;;;;;5078360;28;46989;-85
2021/07/14 12:08:36;;;;;;;;;8.75;8.75;;;;;;;;5077821;28;46977;-85
2021/07/14 12:11:01;;;;;;;;;12.25;12.00;;;;;;;;5077720;28;47007;-85
2021/07/14 12:13:26;;;;;;;;;9.75;8.25;;;;;;;;5077410;28;47099;-85
2021/07/14 12:15:52;;;;;;;;;13.50;13.00;;;;;;;;5077939;28;46890;-84
2021/07/14 12:18:17;;;;;;;;;7.00;7.00;;;;;;;;5077497;28;47732;-84
2021/07/14 12:20:50;;;;;;;;;13.00;11.50;;;;;;;;5077608;28;46824;-84
2021/07/14 12:23:16;;;;;;;;;7.75;7.75;;;;;;;;5077558;28;46986;-84
2021/07/14 12:25:41;;;;;;;;;9.25;8.00;;;;;;;;5077807;28;47266;-84
2021/07/14 12:28:10;;;;;;;;;10.50;8.25;;;;;;;;5077179;28;47102;-84
2021/07/14 12:30:39;;;;;;;;;5.50;5.50;;;;;;;;5077036;28;47089;-84
2021/07/14 12:33:04;;;;;;;;;13.00;12.50;;;;;;;;5077234;28;47051;-84
2021/07/14 12:35:31;;;;;;;;;13.00;10.25;;;;;;;;5059221;28;47121;-84
2021/07/14 12:38:03;;;;;;;;;12.50;11.25;;;;;;;;5077272;28;47982;-83
2021/07/14 12:40:33;;;;;;;;;10.00;10.00;;;;;;;;5077316;28;47046;-84
2021/07/14 12:43:00;;;;;;;;;14.00;14.00;;;;;;;;5058997;28;46840;-83
2021/07/14 12:45:32;;;;;;;;;11.25;11.00;;;;;;;;5077248;28;47286;-83
2021/07/14 12:48:02;;;;;;;;;13.25;12.25;;;;;;;;5077334;28;46871;-83
2021/07/14 12:50:27;;;;;;;;;9.25;7.50;;;;;;;;5077170;28;46959;-83
2021/07/14 12:52:54;;;;;;;;;8.25;8.25;;;;;;;;5077495;28;46983;-83
2021/07/14 12:55:20;;;;;;;;;10.50;10.25;;;;;;;;5077381;28;47147;-83
2021/07/14 12:57:46;;;;;;;;;12.25;12.25;;;;;;;;5079459;28;47865;-83
2021/07/14 13:00:11;;;;;;;;;13.50;13.50;;;;;;;;5080497;28;46886;-84
2021/07/14 13:02:40;;;;;;;;;9.75;8.00;;;;;;;;5062368;28;46824;-84
2021/07/14 13:05:05;;;;;;;;;10.00;9.25;;;;;;;;5080780;28;47234;-84
2021/07/14 13:07:32;;;;;;;;;13.00;12.75;;;;;;;;5080671;28;46929;-83
2021/07/14 13:09:58;;;;;;;;;12.50;11.75;;;;;;;;5061817;28;47746;-84
2021/07/14 13:12:25;;;;;;;;;13.00;11.75;;;;;;;;5080653;28;46900;-83
2021/07/14 13:14:51;;;;;;;;;10.50;9.00;;;;;;;;5080294;28;46988;-84
2021/07/14 13:17:26;;;;;;;;;12.00;11.50;;;;;;;;5061999;28;47347;-84
2021/07/14 13:19:59;;;;;;;;;14.75;14.75;;;;;;;;5061845;28;47186;-84
2021/07/14 13:22:25;;;;;;;;;17.00;14.75;;;;;;;;5080306;28;46844;-83
2021/07/14 13:24:59;;;;;;;;;8.50;8.00;;;;;;;;5080407;28;47259;-84
2021/07/14 13:27:28;;;;;;;;;12.00;11.00;;;;;;;;5080184;28;47128;-83
2021/07/14 13:29:53;;;;;;;;;15.00;12.50;;;;;;;;5079656;28;46864;-83
2021/07/14 13:32:19;;;;;;;;;9.00;9.00;;;;;;;;5080389;28;47138;-83
2021/07/14 13:34:47;;;;;;;;;11.50;11.50;;;;;;;;5080028;27;47230;-83
2021/07/14 13:37:23;;;;;;;;;9.50;8.00;;;;;;;;5079923;28;47257;-86
2021/07/14 13:39:48;;;;;;;;;14.00;13.00;;;;;;;;5079941;28;46848;-85
2021/07/14 13:42:17;;;;;;;;;13.50;13.50;;;;;;;;5079855;28;46971;-85
2021/07/14 13:44:43;;;;;;;;;12.75;11.00;;;;;;;;5079722;28;46918;-86
2021/07/14 13:47:10;;;;;;;;;12.00;10.50;;;;;;;;5079195;28;47171;-84
2021/07/14 13:49:36;;;;;;;;;13.25;11.00;;;;;;;;5081257;27;46935;-85
2021/07/14 13:52:02;;;;;;;;;15.25;15.25;;;;;;;;5079852;28;47129;-85
2021/07/14 13:54:28;;;;;;;;;12.00;11.75;;;;;;;;5088867;27;47024;-85
2021/07/14 13:56:55;;;;;;;;;7.25;7.25;;;;;;;;5061532;28;48437;-85
2021/07/14 13:59:27;;;;;;;;;13.25;13.25;;;;;;;;5079378;28;47071;-85
2021/07/14 14:01:55;;;;;;;;;7.25;7.00;;;;;;;;5079954;28;47036;-85
2021/07/14 14:04:21;;;;;;;;;9.75;9.50;;;;;;;;5079831;28;46981;-84
2021/07/14 14:06:46;;;;;;;;;15.00;13.25;;;;;;;;5062886;28;49836;-85
2021/07/14 14:09:19;;;;;;;;;16.75;13.50;;;;;;;;5079298;28;46729;-86
2021/07/14 14:11:45;;;;;;;;;11.75;9.75;;;;;;;;5079050;28;46905;-85
2021/07/14 14:14:11;;;;;;;;;12.00;10.75;;;;;;;;5079151;28;46905;-85
2021/07/14 14:16:36;;;;;;;;;16.25;14.00;;;;;;;;5077531;28;47708;-86
2021/07/14 14:19:04;;;;;;;;;16.50;14.50;;;;;;;;5079059;27;47011;-86
2021/07/14 14:21:29;;;;;;;;;11.50;11.00;;;;;;;;5060092;27;46942;-86
2021/07/14 14:23:58;;;;;;;;;13.75;11.50;;;;;;;;5084439;27;46980;-86
2021/07/14 14:30:05;;;;;;;;;14.75;13.25;;;;;;;;5077977;28;46990;-90
2021/07/14 14:32:30;;;;;;;;;18.75;16.50;;;;;;;;4996519;28;47229;-87
2021/07/14 14:34:56;;;;;;;;;17.50;14.00;;;;;;;;4996723;28;46985;-87
2021/07/14 14:37:21;;;;;;;;;10.50;10.50;;;;;;;;5074769;27;47122;-87
2021/07/14 14:39:47;;;;;;;;;15.75;15.00;;;;;;;;5078903;28;47035;-88
2021/07/14 14:42:12;;;;;;;;;13.75;12.50;;;;;;;;5067015;28;46959;-87
2021/07/14 14:44:38;;;;;;;;;18.00;16.00;;;;;;;;5061339;28;47197;-91
2021/07/14 14:47:03;;;;;;;;;14.50;14.50;;;;;;;;5077617;27;47778;-91
2021/07/14 14:49:28;;;;;;;;;16.50;15.00;;;;;;;;5063247;28;46876;-87
2021/07/14 14:51:55;;;;;;;;;7.50;7.00;;;;;;;;5078978;28;47217;-87
2021/07/14 14:54:20;;;;;;;;;14.00;13.25;;;;;;;;5088757;27;46978;-87
2021/07/14 14:56:45;;;;;;;;;18.00;15.75;;;;;;;;5078695;28;47173;-89
2021/07/14 14:59:11;;;;;;;;;14.00;13.25;;;;;;;;5078392;28;46931;-86
2021/07/14 15:01:36;;;;;;;;;14.75;14.75;;;;;;;;5060578;28;46920;-88
2021/07/14 15:04:01;;;;;;;;;14.25;14.25;;;;;;;;5078945;28;46793;-88
2021/07/14 15:06:27;;;;;;;;;13.00;13.00;;;;;;;;5084909;27;46900;-87
2021/07/14 15:08:52;;;;;;;;;13.25;10.00;;;;;;;;5078549;28;46958;-87
2021/07/14 15:11:18;;;;;;;;;16.75;15.25;;;;;;;;5078455;28;47140;-88
2021/07/14 15:13:43;;;;;;;;;16.75;16.00;;;;;;;;5078604;28;46808;-89
2021/07/14 15:16:08;;;;;;;;;17.00;15.75;;;;;;;;5078788;27;46813;-88
2021/07/14 15:18:43;;;;;;;;;14.75;14.00;;;;;;;;5078559;27;46959;-87
2021/07/14 15:21:09;;;;;;;;;16.25;14.00;;;;;;;;5077922;27;46887;-88
2021/07/14 15:23:34;;;;;;;;;12.50;12.50;;;;;;;;5078909;28;46794;-88
2021/07/14 15:28:43;;;;;;;;;14.75;11.25;;;;;;;;5078150;28;47322;-88
2021/07/14 15:31:10;;;;;;;;;13.00;11.00;;;;;;;;5078729;28;47037;-88
2021/07/14 15:33:36;;;;;;;;;11.25;11.25;;;;;;;;5078950;27;47303;-87
2021/07/14 15:39:34;;;;;;;;;9.25;8.75;;;;;;;;5005897;28;47061;-88
2021/07/14 15:42:19;;;;;;;;;16.25;14.00;;;;;;;;5080366;27;46827;-88
2021/07/14 15:44:54;;;;;;;;;12.50;12.00;;;;;;;;5059951;28;47014;-87
2021/07/14 15:47:37;;;;;;;;;;;;;;;;;;;;;
2021/07/14 15:50:23;;;;;;;;;9.25;9.00;;;;;;;;5077315;28;75045;-88
2021/07/14 15:53:21;;;;;;;;;;;;;;;;;;;;;
2021/07/14 15:59:30;;;;;;;;;13.25;12.00;;;;;;;;5038460;28;47209;-88
2021/07/14 16:02:26;;;;;;;;;13.75;12.50;;;;;;;;5078259;28;46938;-88
2021/07/14 16:05:16;;;;;;;;;13.75;12.50;;;;;;;;5052931;28;47200;-88
2021/07/14 16:07:47;;;;;;;;;8.50;8.50;;;;;;;;5066972;28;46737;-87
2021/07/14 16:19:59;;;;;;;;;8.25;7.75;;;;;;;;4990246;28;47256;-87
2021/07/14 16:22:54;;;;;;;;;10.75;9.75;;;;;;;;4995382;28;47402;-87
2021/07/14 16:25:45;;;;;;;;;;;;;;;;;;;;;
2021/07/14 16:28:33;;;;;;;;;14.25;12.50;;;;;;;;5000796;28;74047;-86
2021/07/14 16:34:04;;;;;;;;;8.75;8.00;;;;;;;;5040290;27;47086;-85
2021/07/14 16:36:59;;;;;;;;;12.75;12.00;;;;;;;;5081542;28;46912;-87
2021/07/14 16:40:15;;;;;;;;;;;;;;;;;;;;;
2021/07/14 16:49:14;;;;;;;;;15.25;12.00;;;;;;;;4959030;28;47103;-85
2021/07/14 16:55:13;;;;;;;;;12.25;12.25;;;;;;;;4913549;28;47271;-87
2021/07/14 16:57:49;;;;;;;;;19.75;18.00;;;;;;;;4948512;28;49192;-86
2021/07/14 17:00:24;;;;;;;;;16.25;15.25;;;;;;;;4959131;28;47060;-88
2021/07/14 17:06:07;;;;;;;;;;;;;;;;;;;;;
2021/07/14 17:21:45;;;;;;;;;19.00;16.75;;;;;;;;4862605;29;47393;-89
2021/07/14 17:24:10;;;;;;;;;14.75;12.50;;;;;;;;4905680;28;47210;-88
2021/07/14 17:26:36;;;;;;;;;12.50;12.50;;;;;;;;4997726;28;46901;-90
2021/07/14 17:29:11;;;;;;;;;20.75;17.00;;;;;;;;5058696;28;48631;-89
2021/07/14 17:31:36;;;;;;;;;16.25;14.75;;;;;;;;5060027;28;46920;-87
2021/07/14 17:34:05;;;;;;;;;22.25;20.25;;;;;;;;5059121;28;46927;-88
2021/07/14 17:36:31;;;;;;;;;13.00;12.00;;;;;;;;5060477;28;47098;-91
2021/07/14 17:38:56;;;;;;;;;17.75;17.00;;;;;;;;5060583;28;46944;-92
2021/07/14 17:41:22;;;;;;;;;20.00;18.25;;;;;;;;5059050;28;48551;-93
2021/07/14 17:43:48;;;;;;;;;16.50;16.25;;;;;;;;5059795;28;47332;-90
2021/07/14 17:46:13;;;;;;;;;16.50;15.00;;;;;;;;5059885;28;46973;-80
2021/07/14 17:48:39;;;;;;;;;14.00;12.00;;;;;;;;5059906;28;46924;-84
2021/07/14 17:51:04;;;;;;;;;16.00;16.00;;;;;;;;5059460;28;47881;-84
2021/07/14 17:53:30;;;;;;;;;16.25;15.50;;;;;;;;5060023;28;46888;-84
2021/07/14 17:55:55;;;;;;;;;16.75;14.25;;;;;;;;5059878;28;47533;-84
2021/07/14 17:58:20;;;;;;;;;17.75;16.75;;;;;;;;5059501;28;47120;-83
2021/07/14 18:00:46;;;;;;;;;16.25;14.75;;;;;;;;5059472;28;46970;-83
2021/07/14 18:03:11;;;;;;;;;13.50;12.00;;;;;;;;5058203;28;46981;-83
2021/07/14 18:05:36;;;;;;;;;11.75;10.75;;;;;;;;5059707;28;46861;-83
2021/07/14 18:08:02;;;;;;;;;16.00;15.75;;;;;;;;5058388;28;47063;-83
2021/07/14 18:10:28;;;;;;;;;17.00;16.00;;;;;;;;5067047;28;46886;-83
2021/07/14 18:12:53;;;;;;;;;16.75;14.75;;;;;;;;5078371;28;46862;-83
2021/07/14 18:15:18;;;;;;;;;19.75;18.25;;;;;;;;5078187;28;46869;-83
2021/07/14 18:17:44;;;;;;;;;21.50;21.00;;;;;;;;5078578;28;46778;-84
2021/07/14 18:20:12;;;;;;;;;14.25;14.25;;;;;;;;5079546;27;48013;-83
2021/07/14 18:22:38;;;;;;;;;16.50;15.00;;;;;;;;5062097;28;47504;-83
2021/07/14 18:25:05;;;;;;;;;19.25;17.00;;;;;;;;5079509;28;47038;-83
2021/07/14 18:27:31;;;;;;;;;14.75;13.75;;;;;;;;5061000;28;47054;-83
2021/07/14 18:29:56;;;;;;;;;17.75;17.50;;;;;;;;5078987;28;48011;-84
2021/07/14 18:32:22;;;;;;;;;14.50;14.50;;;;;;;;5062806;27;46979;-84
2021/07/14 18:34:47;;;;;;;;;17.00;16.00;;;;;;;;5079542;27;46982;-83
2021/07/14 18:37:12;;;;;;;;;20.75;20.50;;;;;;;;5080532;27;47291;-86
2021/07/14 18:39:38;;;;;;;;;21.00;19.25;;;;;;;;5063697;27;48782;-85
2021/07/14 18:42:03;;;;;;;;;14.75;13.50;;;;;;;;5063753;27;47034;-85
2021/07/14 18:44:29;;;;;;;;;16.50;15.00;;;;;;;;5058411;28;47069;-85
2021/07/14 18:46:54;;;;;;;;;21.50;18.25;;;;;;;;5069643;27;47145;-86
2021/07/14 18:49:19;;;;;;;;;18.75;15.75;;;;;;;;5078749;28;46813;-86
2021/07/14 18:51:45;;;;;;;;;15.00;13.25;;;;;;;;5078648;28;46943;-85
2021/07/14 18:54:10;;;;;;;;;13.25;12.25;;;;;;;;5059312;28;46986;-87
2021/07/14 18:56:36;;;;;;;;;16.50;13.00;;;;;;;;5075950;27;47246;-85
2021/07/14 18:59:02;;;;;;;;;17.75;17.50;;;;;;;;5051664;27;48649;-84
2021/07/14 19:01:28;;;;;;;;;16.50;16.25;;;;;;;;5072690;27;47180;-84
2021/07/14 19:03:53;;;;;;;;;13.00;13.00;;;;;;;;5078497;28;47558;-85
2021/07/14 19:06:19;;;;;;;;;13.50;13.50;;;;;;;;5065181;27;47124;-85
2021/07/14 19:08:44;;;;;;;;;15.75;15.75;;;;;;;;5058187;28;48013;-85
2021/07/14 19:11:09;;;;;;;;;22.75;22.00;;;;;;;;5078193;28;47062;-84
2021/07/14 19:13:35;;;;;;;;;17.25;15.75;;;;;;;;5077060;28;47105;-84
2021/07/14 19:16:01;;;;;;;;;23.25;20.75;;;;;;;;5078732;27;47266;-85
2021/07/14 19:18:26;;;;;;;;;21.25;19.25;;;;;;;;5078653;28;47727;-84
2021/07/14 19:20:52;;;;;;;;;21.00;18.50;;;;;;;;5078282;28;46988;-85
2021/07/14 19:23:17;;;;;;;;;16.25;14.50;;;;;;;;5059923;28;47093;-85
2021/07/14 19:25:42;;;;;;;;;15.50;14.75;;;;;;;;5071764;27;47031;-85
2021/07/14 19:28:08;;;;;;;;;15.25;14.75;;;;;;;;5069588;28;48238;-85
2021/07/14 19:30:37;;;;;;;;;19.75;18.75;;;;;;;;5078005;28;47104;-85
2021/07/14 19:33:02;;;;;;;;;17.50;15.00;;;;;;;;5068154;27;47164;-84
2021/07/14 19:35:28;;;;;;;;;17.50;17.50;;;;;;;;5078457;28;46810;-86
2021/07/14 19:37:54;;;;;;;;;18.25;18.00;;;;;;;;5049726;28;48304;-85
2021/07/14 19:40:19;;;;;;;;;27.75;23.50;;;;;;;;5071562;27;47316;-85
2021/07/14 19:42:46;;;;;;;;;24.75;21.75;;;;;;;;5067640;28;46904;-85
2021/07/14 19:45:12;;;;;;;;;24.50;22.50;;;;;;;;5061348;28;46837;-85
2021/07/14 19:47:38;;;;;;;;;26.50;24.75;;;;;;;;5056390;28;48182;-85
2021/07/14 19:50:04;;;;;;;;;18.00;16.00;;;;;;;;5072887;28;46975;-85
2021/07/14 19:52:30;;;;;;;;;24.00;23.00;;;;;;;;5064316;28;46847;-85
2021/07/14 19:54:55;;;;;;;;;25.25;22.25;;;;;;;;5069242;27;46940;-84
2021/07/14 19:57:20;;;;;;;;;21.50;18.75;;;;;;;;5077095;28;47566;-84
2021/07/14 19:59:46;;;;;;;;;19.00;18.75;;;;;;;;5070714;27;47048;-84
2021/07/14 20:02:11;;;;;;;;;19.25;17.50;;;;;;;;5068398;28;47050;-84
2021/07/14 20:04:37;;;;;;;;;23.00;22.00;;;;;;;;5067927;27;46917;-83
2021/07/14 20:07:02;;;;;;;;;24.75;21.75;;;;;;;;5077547;28;47096;-83
2021/07/14 20:09:28;;;;;;;;;28.00;23.00;;;;;;;;5077309;28;47013;-83
2021/07/14 20:11:53;;;;;;;;;28.00;25.75;;;;;;;;5073508;28;46990;-83
2021/07/14 20:14:19;;;;;;;;;24.50;23.50;;;;;;;;5061873;28;47297;-85
2021/07/14 20:16:44;;;;;;;;;20.25;19.00;;;;;;;;5066626;28;47971;-85
2021/07/14 20:19:10;;;;;;;;;17.75;15.25;;;;;;;;5057957;28;47432;-85
2021/07/14 20:21:35;;;;;;;;;23.00;21.00;;;;;;;;5075862;28;46992;-85
2021/07/14 20:24:00;;;;;;;;;21.25;18.50;;;;;;;;5063318;28;47099;-86
2021/07/14 20:26:25;;;;;;;;;20.25;19.00;;;;;;;;5067758;28;46900;-86
2021/07/14 20:28:51;;;;;;;;;20.75;18.00;;;;;;;;5070225;28;46930;-85
2021/07/14 20:31:16;;;;;;;;;16.75;14.75;;;;;;;;5067538;28;46872;-85
2021/07/14 20:33:42;;;;;;;;;9.25;8.25;;;;;;;;5070198;28;46767;-85
2021/07/14 20:36:07;;;;;;;;;23.75;19.75;;;;;;;;5077271;28;47559;-85
2021/07/14 20:38:32;;;;;;;;;25.25;23.75;;;;;;;;5057733;28;46910;-86
2021/07/14 20:40:58;;;;;;;;;19.50;18.50;;;;;;;;5057001;28;46816;-84
2021/07/14 20:43:24;;;;;;;;;22.00;19.75;;;;;;;;5065164;28;47323;-84
2021/07/14 20:45:49;;;;;;;;;18.25;16.00;;;;;;;;5063019;28;48053;-85
2021/07/14 20:48:15;;;;;;;;;21.50;18.50;;;;;;;;5064769;28;46840;-83
2021/07/14 20:50:40;;;;;;;;;14.00;14.00;;;;;;;;5063475;28;46871;-88
2021/07/14 20:53:06;;;;;;;;;18.75;18.75;;;;;;;;5070229;28;47015;-85
2021/07/14 20:55:32;;;;;;;;;16.50;15.50;;;;;;;;5058168;28;47079;-85
2021/07/14 20:57:57;;;;;;;;;19.50;18.00;;;;;;;;5066499;28;46974;-86
2021/07/14 21:00:27;;;;;;;;;15.75;15.25;;;;;;;;5069238;28;47076;-85
2021/07/14 21:02:53;;;;;;;;;18.25;17.75;;;;;;;;5061707;28;47165;-85
2021/07/14 21:05:18;;;;;;;;;20.75;20.75;;;;;;;;5041702;28;46953;-85
2021/07/14 21:07:44;;;;;;;;;22.00;19.75;;;;;;;;5056793;28;47058;-85
2021/07/14 21:10:10;;;;;;;;;20.50;19.50;;;;;;;;5051452;28;46817;-85
2021/07/14 21:12:36;;;;;;;;;15.50;15.50;;;;;;;;5060430;28;47166;-85
2021/07/14 21:15:03;;;;;;;;;13.00;11.75;;;;;;;;5069968;28;47343;-86
2021/07/14 21:17:28;;;;;;;;;21.00;20.00;;;;;;;;5064308;28;47217;-85
2021/07/14 21:19:53;;;;;;;;;22.25;19.25;;;;;;;;5066194;28;46970;-84
2021/07/14 21:22:19;;;;;;;;;20.25;19.25;;;;;;;;5076695;28;46864;-85
2021/07/14 21:24:44;;;;;;;;;21.50;20.25;;;;;;;;5066106;28;47961;-87
2021/07/14 21:27:09;;;;;;;;;17.50;17.50;;;;;;;;5060868;28;46972;-86
2021/07/14 21:29:35;;;;;;;;;13.75;11.25;;;;;;;;5071996;28;47091;-84
2021/07/14 21:32:00;;;;;;;;;14.75;14.00;;;;;;;;5064134;28;47352;-86
2021/07/14 21:34:26;;;;;;;;;11.75;11.50;;;;;;;;5073545;28;47090;-86
2021/07/14 21:36:53;;;;;;;;;14.50;13.75;;;;;;;;5067258;28;46728;-84
2021/07/14 21:39:19;;;;;;;;;12.50;11.25;;;;;;;;5047811;28;46855;-85
2021/07/14 21:41:45;;;;;;;;;13.75;13.25;;;;;;;;5072007;28;46786;-88
2021/07/14 21:44:10;;;;;;;;;12.00;12.00;;;;;;;;5054472;28;49124;-86
2021/07/14 21:46:36;;;;;;;;;13.75;13.75;;;;;;;;5060409;28;46976;-86
2021/07/14 21:49:01;;;;;;;;;11.50;10.00;;;;;;;;5073195;28;47035;-85
2021/07/14 21:51:26;;;;;;;;;10.50;10.00;;;;;;;;5044331;28;47190;-85
2021/07/14 21:53:52;;;;;;;;;17.00;16.00;;;;;;;;5069033;28;47062;-87
2021/07/14 21:56:17;;;;;;;;;11.50;11.50;;;;;;;;5059607;28;46945;-88
2021/07/14 21:58:42;;;;;;;;;16.25;14.25;;;;;;;;5041073;28;47104;-86
2021/07/14 22:01:08;;;;;;;;;16.00;14.00;;;;;;;;5059672;28;46991;-86
2021/07/14 22:03:33;;;;;;;;;16.25;16.25;;;;;;;;5060135;28;47539;-86
2021/07/14 22:05:58;;;;;;;;;16.75;15.50;;;;;;;;5065502;28;47315;-85
2021/07/14 22:08:26;;;;;;;;;14.50;14.50;;;;;;;;5072557;28;47007;-82
2021/07/14 22:10:53;;;;;;;;;11.50;11.00;;;;;;;;5059504;28;46940;-85
2021/07/14 22:13:19;;;;;;;;;20.00;17.25;;;;;;;;5069296;28;47103;-86
2021/07/14 22:15:46;;;;;;;;;17.50;15.75;;;;;;;;5063807;28;46964;-84
2021/07/14 22:18:13;;;;;;;;;14.50;13.25;;;;;;;;5064608;28;46847;-85
2021/07/14 22:20:39;;;;;;;;;16.00;15.00;;;;;;;;5067298;28;47121;-85
2021/07/14 22:23:06;;;;;;;;;13.75;12.50;;;;;;;;5071325;28;47288;-86
2021/07/14 22:25:34;;;;;;;;;15.00;12.00;;;;;;;;5066393;28;47102;-87
2021/07/14 22:28:00;;;;;;;;;14.50;14.00;;;;;;;;5051573;28;46904;-86
2021/07/14 22:30:27;;;;;;;;;19.25;16.50;;;;;;;;5071573;27;47043;-88
2021/07/14 22:32:57;;;;;;;;;14.75;14.00;;;;;;;;5065254;28;47282;-87
2021/07/14 22:35:25;;;;;;;;;14.25;13.50;;;;;;;;5060932;28;46882;-86
2021/07/14 22:37:50;;;;;;;;;17.75;16.25;;;;;;;;5074510;28;46737;-86
2021/07/14 22:40:16;;;;;;;;;15.00;14.50;;;;;;;;5059123;28;46832;-85
2021/07/14 22:42:41;;;;;;;;;17.00;14.75;;;;;;;;5058578;28;47032;-86
2021/07/14 22:45:07;;;;;;;;;17.50;15.25;;;;;;;;5062790;28;46924;-86
2021/07/14 22:47:36;;;;;;;;;15.75;15.75;;;;;;;;5062679;28;47208;-84
2021/07/14 22:50:06;;;;;;;;;13.50;13.50;;;;;;;;5071268;28;46833;-85
2021/07/14 22:52:31;;;;;;;;;17.25;13.50;;;;;;;;5040804;28;48979;-87
2021/07/14 22:54:57;;;;;;;;;21.50;18.50;;;;;;;;5058626;28;47136;-86
2021/07/14 22:57:23;;;;;;;;;19.25;17.75;;;;;;;;5063632;28;47181;-86
2021/07/14 22:59:49;;;;;;;;;12.75;12.75;;;;;;;;5065815;28;46884;-87
2021/07/14 23:02:14;;;;;;;;;15.50;14.00;;;;;;;;5076494;28;47633;-86
2021/07/14 23:04:42;;;;;;;;;17.75;17.25;;;;;;;;5058598;28;46806;-87
2021/07/14 23:07:07;;;;;;;;;14.00;14.00;;;;;;;;5059751;28;46841;-85
2021/07/14 23:09:32;;;;;;;;;14.50;14.50;;;;;;;;5070285;28;46802;-88
2021/07/14 23:11:58;;;;;;;;;13.25;12.25;;;;;;;;5071457;28;48150;-87
2021/07/14 23:14:23;;;;;;;;;13.25;11.50;;;;;;;;5066332;28;46929;-88
2021/07/14 23:16:49;;;;;;;;;17.75;15.50;;;;;;;;5068665;27;46906;-88
2021/07/14 23:19:14;;;;;;;;;12.50;11.25;;;;;;;;5043584;28;46742;-88
2021/07/14 23:21:40;;;;;;;;;11.75;11.00;;;;;;;;5067312;28;46997;-88
2021/07/14 23:24:05;;;;;;;;;14.25;12.25;;;;;;;;5060635;28;46920;-89
2021/07/14 23:26:58;;;;;;;;;14.00;12.50;;;;;;;;5060700;27;46787;-89
2021/07/14 23:29:36;;;;;;;;;;;;;;;;;;;;;
2021/07/14 23:32:15;;;;;;;;;15.00;14.75;;;;;;;;5056914;28;76908;-89
2021/07/14 23:34:45;;;;;;;;;15.00;14.75;;;;;;;;5057735;28;46891;-87
2021/07/14 23:37:11;;;;;;;;;13.75;12.75;;;;;;;;5059956;28;46955;-87
2021/07/14 23:39:37;;;;;;;;;12.50;11.25;;;;;;;;5058046;28;46983;-86
2021/07/14 23:42:07;;;;;;;;;13.00;11.50;;;;;;;;5052703;28;48377;-88